Time;durP1;ratioP1;P1;durP2;ratioP2;P2;SDS_P1;SDS_P2;PMS_P1;PMS_P2;Temp;Humidity;BMP_temperature;BMP_pressure;BME280_temperature;BME280_humidity;BME280_pressure;Samples;Min_cycle;Max_cycle;Signal;HPM_P1;HPM_P2
2023/08/16 00:00:25;;;;;;;10.33;5.40;;;21.90;99.90;;;;;;21081785;28;20262;-70
2023/08/16 00:10:27;;;;;;;7.40;4.80;;;21.80;99.90;;;;;;21081543;28;20608;-70
2023/08/16 00:20:29;;;;;;;6.67;4.47;;;21.70;99.90;;;;;;21081578;28;20701;-71
2023/08/16 00:30:31;;;;;;;7.43;4.87;;;21.60;99.90;;;;;;21079888;28;20199;-70
2023/08/16 00:40:33;;;;;;;8.27;4.97;;;21.50;99.90;;;;;;21079323;28;20241;-70
2023/08/16 00:50:34;;;;;;;8.90;5.30;;;21.30;99.90;;;;;;21079054;28;20199;-70
2023/08/16 01:00:36;;;;;;;13.90;5.90;;;21.30;99.90;;;;;;21083100;28;20333;-71
2023/08/16 01:10:53;;;;;;;9.53;5.37;;;21.20;99.90;;;;;;21095982;28;20329;-71
2023/08/16 01:20:55;;;;;;;7.13;5.03;;;21.10;99.90;;;;;;21094526;28;20772;-71
2023/08/16 01:31:01;;;;;;;8.03;5.33;;;21.00;99.90;;;;;;21093629;28;20654;-70
2023/08/16 01:41:10;;;;;;;10.47;5.93;;;21.00;99.90;;;;;;21093029;28;20592;-72
2023/08/16 01:51:12;;;;;;;7.13;5.50;;;20.90;99.90;;;;;;21092949;28;20238;-73
2023/08/16 02:01:14;;;;;;;7.63;5.40;;;20.80;99.90;;;;;;21091207;28;20352;-70
2023/08/16 02:11:16;;;;;;;10.40;5.40;;;20.80;99.90;;;;;;21090466;28;20234;-70
2023/08/16 02:21:18;;;;;;;10.43;5.30;;;20.70;99.90;;;;;;21090117;28;20639;-70
2023/08/16 02:31:20;;;;;;;11.40;5.37;;;20.60;99.90;;;;;;21088871;28;20664;-70
2023/08/16 02:41:21;;;;;;;10.87;5.77;;;20.60;99.90;;;;;;21088372;28;20289;-70
2023/08/16 02:51:23;;;;;;;8.90;5.43;;;20.60;99.90;;;;;;21087468;28;20209;-69
2023/08/16 03:01:25;;;;;;;13.57;5.50;;;20.50;99.90;;;;;;21087348;28;20301;-69
2023/08/16 03:11:27;;;;;;;10.93;5.93;;;20.40;99.90;;;;;;21056208;28;20287;-70
2023/08/16 03:21:29;;;;;;;8.97;6.57;;;20.30;99.90;;;;;;21023118;28;20210;-69
2023/08/16 03:31:30;;;;;;;12.87;7.20;;;20.40;99.90;;;;;;21083976;28;20294;-69
2023/08/16 03:41:37;;;;;;;13.63;8.70;;;20.40;99.90;;;;;;21058609;28;20211;-70
2023/08/16 03:51:39;;;;;;;11.83;8.70;;;20.20;99.90;;;;;;21004555;28;20235;-70
2023/08/16 04:01:41;;;;;;;13.57;7.50;;;20.10;99.90;;;;;;20997806;28;20290;-69
2023/08/16 04:11:43;;;;;;;16.07;8.70;;;20.00;99.90;;;;;;20997085;28;20683;-70
2023/08/16 04:21:44;;;;;;;26.43;10.87;;;20.20;99.90;;;;;;21000220;28;20198;-70
2023/08/16 04:31:46;;;;;;;22.50;12.30;;;20.10;99.90;;;;;;21080068;28;20595;-69
2023/08/16 04:41:48;;;;;;;24.33;12.60;;;20.10;99.90;;;;;;21079185;28;20612;-72
2023/08/16 04:51:50;;;;;;;20.83;11.10;;;20.30;99.90;;;;;;21055191;28;20236;-70
2023/08/16 05:01:51;;;;;;;23.77;11.67;;;20.40;99.90;;;;;;21005628;28;20207;-71
2023/08/16 05:11:53;;;;;;;23.40;12.73;;;20.40;99.90;;;;;;20994430;28;20246;-70
2023/08/16 05:21:55;;;;;;;34.70;13.60;;;20.40;99.90;;;;;;20998950;28;20680;-70
2023/08/16 05:31:58;;;;;;;21.60;12.53;;;20.40;99.90;;;;;;21068960;28;20231;-71
2023/08/16 05:41:59;;;;;;;20.93;13.77;;;20.40;99.90;;;;;;21024420;28;20209;-70
2023/08/16 05:52:01;;;;;;;22.37;13.13;;;20.30;99.90;;;;;;21036244;28;20237;-72
2023/08/16 06:02:03;;;;;;;38.00;20.63;;;20.50;99.90;;;;;;21007289;28;20207;-69
2023/08/16 06:12:05;;;;;;;30.70;21.00;;;20.60;99.90;;;;;;21006462;28;20249;-67
2023/08/16 06:22:07;;;;;;;29.50;17.30;;;20.80;99.90;;;;;;21006049;28;20253;-68
2023/08/16 06:32:09;;;;;;;22.07;16.03;;;21.00;99.90;;;;;;21019722;28;20237;-66
2023/08/16 06:42:10;;;;;;;22.33;14.10;;;21.10;99.90;;;;;;21087480;28;20666;-69
2023/08/16 06:52:12;;;;;;;20.83;13.70;;;21.50;99.90;;;;;;21054778;28;20306;-72
2023/08/16 07:02:14;;;;;;;17.60;12.37;;;22.10;99.90;;;;;;21055871;28;20206;-68
2023/08/16 07:12:16;;;;;;;16.70;9.87;;;22.20;99.90;;;;;;21083956;28;20235;-70
2023/08/16 07:22:20;;;;;;;10.50;8.50;;;22.50;99.90;;;;;;21085337;28;20706;-71
2023/08/16 07:32:22;;;;;;;20.07;8.40;;;22.90;99.90;;;;;;21084096;28;20266;-69
2023/08/16 07:42:24;;;;;;;11.37;7.10;;;23.30;99.90;;;;;;21081348;28;20717;-71
2023/08/16 07:52:26;;;;;;;11.20;6.40;;;23.20;99.90;;;;;;21082779;28;20643;-72
2023/08/16 08:02:28;;;;;;;10.40;5.97;;;23.20;99.90;;;;;;21081631;28;20210;-71
2023/08/16 08:12:50;;;;;;;8.40;5.47;;;23.30;99.90;;;;;;21080717;28;20242;-70
2023/08/16 08:22:52;;;;;;;9.83;6.17;;;23.50;99.90;;;;;;21081717;28;20211;-71
2023/08/16 08:32:57;;;;;;;8.10;4.70;;;23.90;99.90;;;;;;21086830;28;20238;-70
2023/08/16 08:42:59;;;;;;;6.93;5.30;;;24.20;99.90;;;;;;21077399;28;20202;-71
2023/08/16 08:53:01;;;;;;;8.73;5.40;;;24.30;99.90;;;;;;21078538;28;20241;-70
2023/08/16 09:03:07;;;;;;;5.80;4.90;;;24.50;99.90;;;;;;21076870;28;20281;-70
2023/08/16 09:13:12;;;;;;;6.83;4.60;;;24.70;99.90;;;;;;21077377;28;20246;-68
2023/08/16 09:23:14;;;;;;;8.17;4.43;;;24.90;99.90;;;;;;21084739;28;20241;-70
2023/08/16 09:33:22;;;;;;;6.03;4.60;;;25.00;99.90;;;;;;21094050;28;20240;-70
2023/08/16 09:43:24;;;;;;;5.45;3.88;;;25.20;99.90;;;;;;21092991;28;20303;-70
2023/08/16 09:53:27;;;;;;;6.73;3.80;;;25.40;99.90;;;;;;21092082;28;20321;-71
2023/08/16 10:03:33;;;;;;;5.87;3.60;;;25.60;99.90;;;;;;21091828;28;20622;-69
2023/08/16 10:13:38;;;;;;;7.83;4.20;;;25.70;99.90;;;;;;21072314;28;20731;-70
2023/08/16 10:23:43;;;;;;;5.17;2.50;;;25.80;99.90;;;;;;21091434;28;20658;-69
2023/08/16 10:33:49;;;;;;;3.50;2.87;;;25.80;99.30;;;;;;21088729;28;20242;-69
2023/08/16 10:43:53;;;;;;;4.63;3.77;;;25.80;98.60;;;;;;21088485;28;20234;-69
2023/08/16 10:53:58;;;;;;;5.23;4.00;;;25.80;98.40;;;;;;21085716;28;20237;-69
2023/08/16 11:04:02;;;;;;;6.10;3.90;;;25.70;98.50;;;;;;21041349;28;20211;-68
2023/08/16 11:14:05;;;;;;;5.93;3.43;;;25.70;98.70;;;;;;21016352;28;20698;-66
2023/08/16 11:24:09;;;;;;;4.22;3.45;;;26.10;98.70;;;;;;21001393;28;20203;-71
2023/08/16 11:34:11;;;;;;;4.97;2.95;;;26.30;98.40;;;;;;20999641;28;20239;-71
2023/08/16 11:44:13;;;;;;;4.85;2.35;;;26.50;97.90;;;;;;20998636;28;20253;-68
2023/08/16 11:54:24;;;;;;;4.03;2.42;;;26.70;96.60;;;;;;20998437;28;20277;-66
2023/08/16 12:04:26;;;;;;;3.45;2.30;;;27.10;95.10;;;;;;20997887;28;20203;-71
2023/08/16 12:14:27;;;;;;;4.00;2.33;;;27.50;93.20;;;;;;21014866;28;20269;-75
2023/08/16 12:24:29;;;;;;;3.15;2.63;;;27.90;91.60;;;;;;21026844;28;20217;-67
2023/08/16 12:34:31;;;;;;;5.93;2.30;;;28.10;90.50;;;;;;21013198;28;20232;-68
2023/08/16 12:44:32;;;;;;;5.53;2.40;;;28.10;89.60;;;;;;20991936;28;20302;-68
2023/08/16 12:54:34;;;;;;;7.00;2.55;;;28.10;87.60;;;;;;20990211;28;20230;-69
2023/08/16 13:04:39;;;;;;;4.20;2.60;;;28.30;85.60;;;;;;20955185;28;1030650;-70
2023/08/16 13:14:40;;;;;;;3.92;2.47;;;28.40;84.50;;;;;;20992552;28;20246;-69
2023/08/16 13:24:46;;;;;;;6.35;2.70;;;28.40;83.30;;;;;;20993844;28;20203;-69
2023/08/16 13:34:50;;;;;;;6.05;3.15;;;28.60;82.10;;;;;;20994021;28;20239;-68
2023/08/16 13:44:55;;;;;;;5.13;2.67;;;28.80;81.60;;;;;;20993413;28;20234;-68
2023/08/16 13:55:17;;;;;;;6.00;2.90;;;28.90;80.90;;;;;;20993309;28;20316;-69
2023/08/16 14:05:19;;;;;;;4.90;3.08;;;29.00;80.80;;;;;;21019981;28;20669;-68
2023/08/16 14:15:21;;;;;;;6.32;2.85;;;31.70;74.20;;;;;;21006472;28;20262;-69
2023/08/16 14:25:23;;;;;;;5.13;2.90;;;32.80;69.50;;;;;;21049580;28;20215;-69
2023/08/16 14:35:24;;;;;;;3.65;2.75;;;31.70;69.60;;;;;;21005504;28;20325;-70
2023/08/16 14:45:26;;;;;;;5.03;2.70;;;32.80;67.00;;;;;;21005323;28;20298;-69
2023/08/16 14:55:28;;;;;;;5.95;2.55;;;35.20;60.60;;;;;;21004074;28;20318;-69
2023/08/16 15:05:30;;;;;;;4.85;2.90;;;37.40;55.90;;;;;;21003309;28;20702;-69
2023/08/16 15:15:31;;;;;;;2.88;2.47;;;36.60;54.20;;;;;;21002426;28;20266;-69
2023/08/16 15:25:33;;;;;;;10.73;3.13;;;35.50;54.10;;;;;;21000139;28;20218;-69
2023/08/16 15:35:35;;;;;;;5.90;2.90;;;33.20;56.70;;;;;;21000460;28;20231;-70
2023/08/16 15:45:37;;;;;;;4.90;2.72;;;32.00;58.30;;;;;;21000081;28;20211;-69
2023/08/16 15:55:39;;;;;;;9.43;3.10;;;31.30;59.50;;;;;;20999028;28;20712;-69
2023/08/16 16:05:41;;;;;;;7.38;2.90;;;31.00;60.00;;;;;;20997044;28;20246;-68
2023/08/16 16:15:43;;;;;;;8.02;3.17;;;30.80;60.40;;;;;;20998201;28;20235;-68
2023/08/16 16:25:45;;;;;;;4.35;3.10;;;30.60;60.90;;;;;;20996764;28;20207;-69
2023/08/16 16:35:46;;;;;;;8.02;3.20;;;30.30;62.10;;;;;;20996106;28;20773;-68
2023/08/16 16:45:49;;;;;;;6.82;3.90;;;30.00;63.10;;;;;;20995531;28;20210;-69
2023/08/16 16:55:51;;;;;;;5.30;3.10;;;29.70;64.10;;;;;;20995904;28;20235;-70
2023/08/16 17:05:52;;;;;;;9.40;3.60;;;29.40;65.20;;;;;;20994853;28;20235;-68
2023/08/16 17:15:54;;;;;;;6.78;3.10;;;29.10;66.00;;;;;;20993992;28;20238;-68
2023/08/16 17:25:56;;;;;;;4.85;3.63;;;28.90;67.20;;;;;;21031011;28;20436;-70
2023/08/16 17:35:58;;;;;;;11.00;3.50;;;28.60;68.30;;;;;;21007727;28;20235;-68
2023/08/16 17:46:03;;;;;;;8.00;3.65;;;28.40;69.50;;;;;;21002916;28;20261;-69
2023/08/16 17:56:05;;;;;;;4.68;3.50;;;28.20;71.00;;;;;;21007867;28;20245;-72
2023/08/16 18:06:07;;;;;;;5.97;3.90;;;28.00;72.20;;;;;;21007238;28;20231;-67
2023/08/16 18:16:09;;;;;;;7.95;3.50;;;27.90;73.60;;;;;;21005686;28;20241;-70
2023/08/16 18:26:10;;;;;;;8.95;3.72;;;27.70;74.60;;;;;;21009846;28;20202;-69
2023/08/16 18:36:14;;;;;;;8.85;3.85;;;27.60;75.80;;;;;;21018370;28;20698;-70
2023/08/16 18:46:16;;;;;;;11.63;3.97;;;27.40;77.10;;;;;;21001743;28;20246;-71
2023/08/16 18:56:19;;;;;;;9.77;3.85;;;27.30;78.30;;;;;;21000803;28;20288;-67
2023/08/16 19:06:21;;;;;;;7.53;6.07;;;27.20;79.60;;;;;;21001099;28;20235;-70
2023/08/16 19:16:23;;;;;;;7.07;4.57;;;27.20;80.90;;;;;;20982100;28;20241;-68
2023/08/16 19:26:25;;;;;;;9.90;4.32;;;27.00;82.50;;;;;;20999349;28;20210;-68
2023/08/16 19:36:26;;;;;;;6.38;4.20;;;27.00;84.20;;;;;;20998931;28;20254;-68
2023/08/16 19:46:28;;;;;;;9.83;4.93;;;26.80;85.80;;;;;;21042102;28;20293;-73
2023/08/16 19:56:30;;;;;;;8.80;4.85;;;26.80;87.60;;;;;;21080923;28;20230;-71
2023/08/16 20:06:32;;;;;;;13.85;4.57;;;26.60;89.60;;;;;;21051371;28;20845;-69
2023/08/16 20:16:36;;;;;;;9.23;5.00;;;26.60;90.30;;;;;;21025134;28;20235;-71
2023/08/16 20:26:37;;;;;;;7.00;4.95;;;26.50;90.70;;;;;;20994501;28;20235;-73
2023/08/16 20:36:39;;;;;;;7.95;4.65;;;26.40;91.20;;;;;;20992670;28;20265;-73
2023/08/16 20:46:45;;;;;;;10.37;5.43;;;26.40;91.70;;;;;;20993299;28;20569;-72
2023/08/16 20:56:47;;;;;;;12.13;4.70;;;26.40;92.30;;;;;;20992997;28;20249;-73
2023/08/16 21:06:49;;;;;;;6.60;5.00;;;26.30;92.70;;;;;;20992655;28;20245;-71
2023/08/16 21:16:51;;;;;;;6.27;4.97;;;26.20;93.10;;;;;;20995461;28;20227;-69
2023/08/16 21:26:53;;;;;;;7.07;5.20;;;26.20;93.60;;;;;;21008455;28;20729;-71
2023/08/16 21:36:54;;;;;;;7.67;3.20;;;26.10;94.20;;;;;;21024770;28;20231;-73
2023/08/16 21:46:56;;;;;;;6.60;2.30;;;25.80;94.70;;;;;;21030698;28;20621;-71
2023/08/16 21:56:58;;;;;;;5.73;1.70;;;25.10;95.70;;;;;;21008325;28;20325;-72
2023/08/16 22:06:59;;;;;;;1.60;1.20;;;24.70;96.50;;;;;;21008280;28;20231;-71
2023/08/16 22:17:01;;;;;;;1.73;1.20;;;24.30;97.10;;;;;;21007166;28;20270;-74
2023/08/16 22:27:03;;;;;;;4.73;1.03;;;23.90;97.70;;;;;;21005848;28;20218;-72
2023/08/16 22:37:05;;;;;;;6.87;1.90;;;23.60;98.40;;;;;;21005960;28;20265;-73
2023/08/16 22:47:07;;;;;;;7.33;2.37;;;23.50;99.00;;;;;;21004883;28;20211;-71
2023/08/16 22:57:09;;;;;;;4.67;1.53;;;22.50;99.90;;;;;;21003995;28;20334;-73
2023/08/16 23:07:11;;;;;;;5.33;1.20;;;22.60;99.90;;;;;;21003296;28;20235;-71
2023/08/16 23:17:13;;;;;;;4.27;1.10;;;22.70;99.90;;;;;;21002634;28;20253;-70
2023/08/16 23:27:14;;;;;;;2.30;1.00;;;22.50;99.90;;;;;;21001644;28;20214;-72
2023/08/16 23:37:16;;;;;;;3.33;1.00;;;22.40;99.90;;;;;;21000744;28;20243;-72
2023/08/16 23:47:18;;;;;;;2.13;1.10;;;22.10;99.90;;;;;;20999638;28;20206;-71
2023/08/16 23:57:20;;;;;;;1.47;1.17;;;21.90;99.90;;;;;;20997762;28;20651;-69
